Terminal Aerodrome Forecast
Issued by NWS Louisville, KY

Home | Current Version | Previous Version | Text Only | Print | Product List | Glossary On
Versions: 1 2 3 4 5 6 7 8 9 10 11 12 13 14 15 16
000
FTUS43 KLMK 162007 AAB
TAFBWG
TAF AMD
KBWG 162007Z 1620/1718 20007KT P6SM SCT035 BKN120
      TEMPO 1620/1622 3SM -TSRA BKN025CB
     FM170000 20004KT 6SM HZ BKN250
      TEMPO 1708/1712 4SM BR
     FM171200 22005KT P6SM BKN050=

USA.gov is the U.S. government's official web portal to all federal, state and local government web resources and services.